Terminal Aerodrome Forecast
Issued by NWS

Home | Current Version | Previous Version | Text Only | Print | Product List | Glossary On
Versions: 1 2 3 4 5 6 7 8 9 10 11 12 13 14 15 16 17 18 19 20 21 22 23 24 25 26 27 28 29 30 31 32 33 34 35 36 37 38 39
000
FTUS45 KBOU 281138
TAFAPA
TAF
KAPA 281138Z 2812/2912 20005KT P6SM FEW140 BKN220
     FM281700 29014KT P6SM SCT120 BKN200
     FM281900 31015G25KT P6SM SCT120 BKN180
     FM282300 35011G18KT P6SM SCT120 BKN150
     FM290100 01009KT P6SM FEW070 BKN120 BKN180
     FM290400 04005KT P6SM BKN070 BKN110
     FM290800 07006KT P6SM SCT030 BKN050 OVC080
     FM291000 VRB05KT P6SM SCT015 OVC030=

USA.gov is the U.S. government's official web portal to all federal, state and local government web resources and services.